Current Conditions
Clear
Conditions



Pressure
1014.92 (mb) - 29.97 (inHG)
Visibility

10.0 (km) - 6.2 (miles)
Temperature
21  °C
Temperature
15  °C
Dewpoint
69  %
 Humidity
Wind Speed
3  km/h
2  kts
2  mph
0.9  m/s
Wind Direction
N
45°
E
90°
135°
S
180°
225°
W
270°
315°
Calm

Due North
Airport Data
LOWL
Linz-Hörsching Airport / Vogler Air Base
Metar :LOWL 182250Z AUTO VRB02KT 9999 NCD 21/15 Q1015
Fri 18th June 23:50 pm
Raw Metar Info
Raw METAR is the most common format in the world for the transmission of observational weather data. It is highly standardized through the International Civil Aviation Organization (ICAO), which allows it to be understood throughout most of the world.
API Info
Data Provided by
https://www.checkwx.com/weather/LOWL

Aviation Weather providing METAR, TAF, AIRMET, SIGMET and OUTLOOK Weather Reports
© Info
CSS/SVG/PHP scripts were developed by weather34.com for use in the weather34 template © 2015-2021

Guide Info provided by Metar-Wikipedia